North Branch, Iowa
Current Conditions -  °F | °C
As of 11:35 AM on Friday 31 Oct 2014 (Local Time) from KADU Reporting Station
Clear Clear  
Wind Chill: 27°   Ceiling: Unl
Heat Index: 36°   Visibility: 10mi
Dew Point: 18°   Wind: 13mph
Humidity: 48%   Direction: 10°N
Pressure: 30.54"   Gusts: 22mph
Location:  41.5232°N, 94.6432°W
Report Text: KADU 311635Z AUTO 01011G19KT 10SM CLR 02/M08 A3054 RMK AO2
Loading
Personal Weather Stations






























Interactive Weather Map
Tropical Storm Tracking
New forecast layout! Learn more

10-Day Weather Forecast

Advertisements
Track Severe Weather on mobile